createdAt,value
2023-04-17T00:02:00.838Z,28.80
2023-04-17T00:04:27.178Z,26.83
2023-04-17T00:06:53.640Z,22.83
2023-04-17T00:09:19.710Z,25.93
2023-04-17T00:11:46.094Z,24.53
2023-04-17T00:14:12.197Z,24.90
2023-04-17T00:16:38.714Z,27.53
2023-04-17T00:19:04.879Z,28.17
2023-04-17T00:21:31.463Z,31.83
2023-04-17T00:23:57.712Z,28.73
2023-04-17T00:26:24.061Z,28.43
2023-04-17T00:28:51.098Z,24.73
2023-04-17T00:31:17.474Z,28.03
2023-04-17T00:33:43.631Z,26.70
2023-04-17T00:36:12.728Z,24.27
2023-04-17T00:38:39.233Z,27.97
2023-04-17T00:41:05.562Z,27.87
2023-04-17T00:43:31.724Z,25.47
2023-04-17T00:45:58.404Z,27.53
2023-04-17T00:48:24.722Z,29.30
2023-04-17T00:50:52.182Z,23.40
2023-04-17T00:53:18.627Z,27.33
2023-04-17T00:55:49.844Z,23.83
2023-04-17T00:58:15.989Z,27.70
2023-04-17T01:00:42.437Z,25.90
2023-04-17T01:03:09.690Z,26.23
2023-04-17T01:05:37.593Z,39.27
2023-04-17T01:08:04.195Z,46.13
2023-04-17T01:10:30.624Z,44.37
2023-04-17T01:13:04.192Z,26.13
2023-04-17T01:15:32.084Z,23.70
2023-04-17T01:17:58.571Z,24.43
2023-04-17T01:20:30.290Z,26.50
2023-04-17T01:22:57.764Z,26.53
2023-04-17T01:25:25.277Z,23.80
2023-04-17T01:27:51.636Z,26.77
2023-04-17T01:30:18.449Z,25.30
2023-04-17T01:33:06.665Z,24.83
2023-04-17T01:35:33.082Z,22.13
2023-04-17T01:37:59.247Z,24.53
2023-04-17T01:40:25.643Z,22.73
2023-04-17T01:42:51.787Z,24.00
2023-04-17T01:45:18.346Z,24.87
2023-04-17T01:47:44.811Z,24.30
2023-04-17T01:50:11.838Z,22.47
2023-04-17T01:52:39.034Z,24.03
2023-04-17T01:55:06.138Z,23.30
2023-04-17T01:57:32.574Z,23.70
2023-04-17T01:59:58.969Z,23.30
2023-04-17T02:02:25.419Z,18.57
2023-04-17T02:04:51.869Z,20.07
2023-04-17T02:07:18.026Z,19.00
2023-04-17T02:09:44.635Z,23.90
2023-04-17T02:12:10.708Z,21.53
2023-04-17T02:14:37.059Z,21.00
2023-04-17T02:17:03.445Z,80.63
2023-04-17T02:19:32.366Z,22.70
2023-04-17T02:22:02.122Z,21.13
2023-04-17T02:24:30.740Z,22.40
2023-04-17T02:26:59.649Z,24.57
2023-04-17T02:29:26.199Z,25.27
2023-04-17T02:31:52.688Z,24.13
2023-04-17T02:34:19.141Z,22.53
2023-04-17T02:36:47.398Z,20.90
2023-04-17T02:39:14.036Z,21.27
2023-04-17T02:41:41.014Z,21.23
2023-04-17T02:44:08.649Z,25.13
2023-04-17T02:46:34.947Z,22.07
2023-04-17T02:49:01.889Z,22.57
2023-04-17T02:51:28.269Z,22.53
2023-04-17T02:53:54.823Z,23.83
2023-04-17T02:56:21.100Z,24.13
2023-04-17T02:58:47.631Z,24.37
2023-04-17T03:01:14.078Z,23.37
2023-04-17T03:03:44.385Z,23.20
2023-04-17T03:06:13.088Z,25.43
2023-04-17T03:08:39.563Z,21.70
2023-04-17T03:11:05.922Z,26.33
2023-04-17T03:13:35.658Z,26.67
2023-04-17T03:16:02.759Z,25.13
2023-04-17T03:18:30.232Z,27.37
2023-04-17T03:20:57.548Z,29.53
2023-04-17T03:23:24.281Z,25.50
2023-04-17T03:25:50.419Z,27.27
2023-04-17T03:28:17.733Z,24.77
2023-04-17T03:30:44.138Z,26.40
2023-04-17T03:33:10.803Z,26.00
2023-04-17T03:35:37.105Z,24.00
2023-04-17T03:38:06.778Z,26.00
2023-04-17T03:40:33.778Z,24.37
2023-04-17T03:43:00.830Z,25.63
2023-04-17T03:45:27.203Z,24.73
2023-04-17T03:47:53.879Z,26.90
2023-04-17T03:50:20.354Z,26.53
2023-04-17T03:52:53.932Z,28.17
2023-04-17T03:55:20.490Z,27.40
2023-04-17T03:57:50.341Z,24.77
2023-04-17T04:00:18.189Z,25.83
2023-04-17T04:02:56.175Z,24.03
2023-04-17T04:05:26.740Z,26.20
2023-04-17T04:07:53.726Z,25.37
2023-04-17T04:10:26.525Z,29.63
2023-04-17T04:12:54.448Z,25.00
2023-04-17T04:15:20.618Z,27.33
2023-04-17T04:17:52.268Z,28.17
2023-04-17T04:20:18.545Z,25.37
2023-04-17T04:22:45.347Z,28.90
2023-04-17T04:25:12.298Z,28.07
2023-04-17T04:27:49.924Z,28.77
2023-04-17T04:30:24.695Z,26.13
2023-04-17T04:32:55.375Z,28.47
2023-04-17T04:35:29.786Z,30.47
2023-04-17T04:38:02.146Z,27.40
2023-04-17T04:40:37.317Z,29.50
2023-04-17T04:43:06.044Z,31.40
2023-04-17T04:45:39.413Z,28.37
2023-04-17T04:48:05.962Z,25.87
2023-04-17T04:50:32.352Z,28.03
2023-04-17T04:52:58.884Z,30.67
2023-04-17T04:55:37.192Z,28.83
2023-04-17T04:58:04.736Z,28.83
2023-04-17T05:00:31.469Z,26.73
2023-04-17T05:02:59.909Z,27.23
2023-04-17T05:05:28.061Z,28.30
2023-04-17T05:07:55.253Z,26.17
2023-04-17T05:10:25.311Z,26.73
2023-04-17T05:12:57.732Z,23.93
2023-04-17T05:15:23.870Z,26.50
2023-04-17T05:17:50.549Z,27.43
2023-04-17T05:20:18.033Z,25.17
2023-04-17T05:22:49.399Z,23.07
2023-04-17T05:25:15.967Z,24.73
2023-04-17T05:27:42.715Z,23.17
2023-04-17T05:30:11.381Z,23.73
2023-04-17T05:32:37.996Z,22.33
2023-04-17T05:35:27.574Z,25.27
2023-04-17T05:37:55.404Z,17.47
2023-04-17T05:40:21.948Z,21.03
2023-04-17T05:42:49.301Z,26.03
2023-04-17T05:45:17.232Z,22.30
2023-04-17T05:47:44.039Z,19.07
2023-04-17T05:50:10.310Z,19.07
2023-04-17T05:52:39.463Z,20.60
2023-04-17T05:55:08.477Z,18.37
2023-04-17T05:57:35.166Z,20.47
2023-04-17T06:00:07.816Z,21.33
2023-04-17T06:02:42.336Z,19.30
2023-04-17T06:05:12.443Z,20.07
2023-04-17T06:07:39.720Z,17.33
2023-04-17T06:10:08.258Z,21.17
2023-04-17T06:12:35.268Z,20.00
2023-04-17T06:15:08.982Z,18.87
2023-04-17T06:17:36.878Z,17.10
2023-04-17T06:20:09.564Z,18.43
2023-04-17T06:22:36.884Z,19.13
2023-04-17T06:25:03.778Z,20.00
2023-04-17T06:27:30.880Z,20.30
2023-04-17T06:29:57.032Z,18.67
2023-04-17T06:32:23.723Z,17.87
2023-04-17T06:34:58.976Z,17.60
2023-04-17T06:37:43.974Z,16.50
2023-04-17T06:40:11.611Z,15.83
2023-04-17T06:42:38.086Z,15.33
2023-04-17T06:45:09.262Z,21.67
2023-04-17T06:47:36.887Z,14.00
2023-04-17T06:50:04.875Z,16.23
2023-04-17T06:52:31.798Z,14.47
2023-04-17T06:54:58.819Z,15.13
2023-04-17T06:57:25.658Z,14.80
2023-04-17T06:59:52.006Z,13.83
2023-04-17T07:02:19.120Z,14.27
2023-04-17T07:04:45.949Z,15.30
2023-04-17T07:07:12.404Z,15.40
2023-04-17T07:09:38.486Z,14.00
2023-04-17T07:12:04.928Z,16.43
2023-04-17T07:14:31.352Z,23.63
2023-04-17T07:16:57.851Z,23.87
2023-04-17T07:19:24.200Z,21.50
2023-04-17T07:21:51.196Z,24.87
2023-04-17T07:24:17.300Z,25.20
2023-04-17T07:26:44.412Z,25.83
2023-04-17T07:29:10.792Z,25.90
2023-04-17T07:31:37.999Z,30.83
2023-04-17T07:34:04.494Z,26.83
2023-04-17T07:36:31.018Z,25.93
2023-04-17T07:38:57.145Z,29.47
2023-04-17T07:41:23.494Z,32.67
2023-04-17T07:43:52.339Z,24.17
2023-04-17T07:46:18.753Z,24.80
2023-04-17T07:48:45.710Z,29.70
2023-04-17T07:51:12.058Z,32.03
2023-04-17T07:53:38.428Z,27.07
2023-04-17T07:56:05.742Z,27.50
2023-04-17T07:58:34.856Z,23.47
2023-04-17T08:01:04.764Z,27.03
2023-04-17T08:03:31.461Z,30.37
2023-04-17T08:05:58.306Z,30.03
2023-04-17T08:08:24.562Z,27.77
2023-04-17T08:10:51.420Z,27.57
2023-04-17T08:13:17.567Z,30.60
2023-04-17T08:15:44.874Z,28.37
2023-04-17T08:18:11.097Z,27.87
2023-04-17T08:20:37.710Z,29.73
2023-04-17T08:23:04.371Z,27.23
2023-04-17T08:25:31.017Z,26.87
2023-04-17T08:27:57.739Z,27.17
2023-04-17T08:30:24.179Z,29.07
2023-04-17T08:32:51.466Z,27.03
2023-04-17T08:35:18.436Z,31.33
2023-04-17T08:37:47.509Z,27.07
2023-04-17T08:40:16.240Z,24.90
2023-04-17T08:42:42.448Z,25.13
2023-04-17T08:45:11.222Z,24.83
2023-04-17T08:47:41.813Z,27.27
2023-04-17T08:50:19.726Z,23.57
2023-04-17T08:52:48.316Z,23.47
2023-04-17T08:55:17.261Z,19.63
2023-04-17T08:58:05.331Z,20.03
2023-04-17T09:00:43.112Z,18.70
2023-04-17T09:03:13.727Z,21.37
2023-04-17T09:05:42.674Z,16.83
2023-04-17T09:08:15.909Z,14.80
2023-04-17T09:10:43.670Z,22.93
2023-04-17T09:13:13.699Z,20.67
2023-04-17T09:15:41.069Z,22.10
2023-04-17T09:18:24.950Z,17.07
2023-04-17T09:20:51.611Z,22.37
2023-04-17T09:23:18.280Z,18.33
2023-04-17T09:25:45.573Z,15.77
2023-04-17T09:28:13.659Z,21.03
2023-04-17T09:30:41.403Z,15.10
2023-04-17T09:33:08.844Z,14.70
2023-04-17T09:35:40.372Z,14.13
2023-04-17T09:38:06.925Z,15.90
2023-04-17T09:40:41.395Z,14.77
2023-04-17T09:43:10.014Z,13.97
2023-04-17T09:45:40.742Z,15.53
2023-04-17T09:48:14.647Z,17.10
2023-04-17T09:50:41.098Z,16.27
2023-04-17T09:53:07.986Z,16.23
2023-04-17T09:55:37.018Z,16.43
2023-04-17T09:58:06.486Z,13.37
2023-04-17T10:00:32.944Z,14.77
2023-04-17T10:02:59.777Z,13.00
2023-04-17T10:05:29.419Z,11.37
2023-04-17T10:07:56.430Z,11.30
2023-04-17T10:10:25.871Z,10.93
2023-04-17T10:13:07.582Z,10.20
2023-04-17T10:15:38.780Z,10.60
2023-04-17T10:18:26.375Z,10.83
2023-04-17T10:20:54.788Z,16.93
2023-04-17T10:23:31.154Z,17.47
2023-04-17T10:26:24.114Z,15.50
2023-04-17T10:28:52.523Z,18.30
2023-04-17T10:31:19.841Z,18.77
2023-04-17T10:33:50.586Z,18.73
2023-04-17T10:36:38.729Z,20.87
2023-04-17T10:39:17.372Z,19.73
2023-04-17T10:42:17.291Z,24.37
2023-04-17T10:44:45.671Z,19.60
2023-04-17T10:47:16.007Z,19.73
2023-04-17T10:49:57.965Z,17.73
2023-04-17T10:52:44.236Z,20.23
2023-04-17T10:55:17.881Z,20.27
2023-04-17T10:58:02.561Z,18.10
2023-04-17T11:00:30.521Z,23.17
2023-04-17T11:02:57.941Z,21.33
2023-04-17T11:05:24.345Z,19.40
2023-04-17T11:07:50.969Z,19.83
2023-04-17T11:10:22.084Z,21.67
2023-04-17T11:12:50.495Z,19.87
2023-04-17T11:15:16.605Z,19.20
2023-04-17T11:17:47.424Z,16.53
2023-04-17T11:20:16.837Z,19.37
2023-04-17T11:22:44.185Z,17.60
2023-04-17T11:25:27.048Z,20.60
2023-04-17T11:28:02.120Z,18.07
2023-04-17T11:30:30.831Z,17.23
2023-04-17T11:33:02.147Z,15.63
2023-04-17T11:35:31.051Z,17.07
2023-04-17T11:38:19.933Z,17.90
2023-04-17T11:40:56.383Z,18.73
2023-04-17T11:43:22.962Z,16.87
2023-04-17T11:45:51.323Z,19.40
2023-04-17T11:48:23.143Z,22.40
2023-04-17T11:50:53.460Z,17.87
2023-04-17T11:53:20.027Z,17.77
2023-04-17T11:55:46.956Z,18.73
2023-04-17T11:58:13.877Z,14.63
2023-04-17T12:00:40.786Z,13.23
2023-04-17T12:03:32.932Z,15.23
2023-04-17T12:06:04.424Z,14.00
2023-04-17T12:08:40.150Z,17.37
2023-04-17T12:11:06.353Z,14.13
2023-04-17T12:13:34.883Z,13.80
2023-04-17T12:16:01.082Z,14.57
2023-04-17T12:18:27.543Z,12.93
2023-04-17T12:20:53.623Z,15.83
2023-04-17T12:23:22.333Z,16.30
2023-04-17T12:25:48.609Z,14.67
2023-04-17T12:28:15.092Z,17.80
2023-04-17T12:30:41.994Z,11.97
2023-04-17T12:33:09.189Z,14.13
2023-04-17T12:35:35.412Z,16.23
2023-04-17T12:38:01.898Z,13.00
2023-04-17T12:40:28.105Z,11.03
2023-04-17T12:42:55.034Z,12.70
2023-04-17T12:45:21.339Z,12.17
2023-04-17T12:47:47.951Z,12.40
2023-04-17T12:50:14.205Z,17.10
2023-04-17T12:52:41.167Z,11.13
2023-04-17T12:55:08.499Z,9.90
2023-04-17T12:57:35.904Z,10.67
2023-04-17T13:00:05.229Z,9.70
2023-04-17T13:02:31.783Z,10.13
2023-04-17T13:04:58.054Z,12.57
2023-04-17T13:07:24.762Z,11.63
2023-04-17T13:09:50.970Z,10.57
2023-04-17T13:12:17.373Z,8.47
2023-04-17T13:14:43.674Z,9.63
2023-04-17T13:17:10.252Z,8.80
2023-04-17T13:19:38.771Z,9.97
2023-04-17T13:22:06.736Z,9.70
2023-04-17T13:24:34.273Z,9.13
2023-04-17T13:27:00.957Z,9.73
2023-04-17T13:29:27.357Z,8.70
2023-04-17T13:31:54.503Z,10.87
2023-04-17T13:34:21.091Z,9.83
2023-04-17T13:36:47.971Z,10.97
2023-04-17T13:39:14.577Z,10.60
2023-04-17T13:41:41.441Z,9.80
2023-04-17T13:44:07.755Z,10.93
2023-04-17T13:46:34.862Z,9.87
2023-04-17T13:49:01.129Z,10.33
2023-04-17T13:51:27.646Z,6.63
2023-04-17T13:53:58.205Z,6.20
2023-04-17T13:56:26.528Z,8.77
2023-04-17T13:58:55.052Z,8.53
2023-04-17T14:01:21.444Z,9.70
2023-04-17T14:03:47.816Z,12.80
2023-04-17T14:06:17.042Z,9.17
2023-04-17T14:08:44.650Z,8.27
2023-04-17T14:11:12.426Z,11.40
2023-04-17T14:13:39.029Z,11.83
2023-04-17T14:16:05.930Z,7.93
2023-04-17T14:18:32.217Z,8.70
2023-04-17T14:20:58.784Z,9.50
2023-04-17T14:23:24.973Z,9.23
2023-04-17T14:25:51.495Z,11.43
2023-04-17T14:28:18.158Z,8.77
2023-04-17T14:30:44.833Z,9.07
2023-04-17T14:33:11.374Z,9.53
2023-04-17T14:35:39.387Z,9.43
2023-04-17T14:38:06.427Z,9.23
2023-04-17T14:40:33.177Z,9.10
2023-04-17T14:42:59.496Z,9.00
2023-04-17T14:45:25.946Z,7.37
2023-04-17T14:47:52.319Z,7.63
2023-04-17T14:50:19.135Z,9.73
2023-04-17T14:52:45.471Z,12.90
2023-04-17T14:55:12.486Z,8.43
2023-04-17T14:57:39.028Z,9.33
2023-04-17T15:00:07.423Z,10.43
2023-04-17T15:02:37.555Z,9.97
2023-04-17T15:05:07.524Z,7.20
2023-04-17T15:07:33.935Z,11.47
2023-04-17T15:10:01.142Z,11.03
2023-04-17T15:12:28.465Z,8.90
2023-04-17T15:14:55.685Z,11.00
2023-04-17T15:17:22.076Z,7.93
2023-04-17T15:19:48.591Z,7.63
2023-04-17T15:22:14.688Z,8.10
2023-04-17T15:24:41.130Z,15.33
2023-04-17T15:27:10.956Z,6.67
2023-04-17T15:29:38.674Z,10.33
2023-04-17T15:32:05.115Z,10.37
2023-04-17T15:34:33.598Z,8.30
2023-04-17T15:37:00.086Z,24.07
2023-04-17T15:39:26.819Z,13.80
2023-04-17T15:41:55.741Z,16.83
2023-04-17T15:44:22.651Z,10.13
2023-04-17T15:46:49.096Z,8.30
2023-04-17T15:49:15.893Z,8.33
2023-04-17T15:51:42.115Z,20.43
2023-04-17T15:54:11.137Z,9.93
2023-04-17T15:56:38.125Z,15.53
2023-04-17T15:59:04.513Z,7.53
2023-04-17T16:01:30.827Z,7.03
2023-04-17T16:03:57.452Z,6.70
2023-04-17T16:06:23.801Z,8.00
2023-04-17T16:08:50.357Z,8.40
2023-04-17T16:11:16.539Z,6.97
2023-04-17T16:13:42.899Z,6.53
2023-04-17T16:16:10.024Z,7.33
2023-04-17T16:18:37.119Z,9.50
2023-04-17T16:21:03.455Z,6.97
2023-04-17T16:23:29.877Z,6.13
2023-04-17T16:25:56.028Z,7.63
2023-04-17T16:28:23.529Z,7.60
2023-04-17T16:30:49.718Z,6.27
2023-04-17T16:33:16.152Z,7.13
2023-04-17T16:35:42.658Z,8.43
2023-04-17T16:38:09.340Z,11.33
2023-04-17T16:40:35.887Z,7.83
2023-04-17T16:43:02.387Z,6.13
2023-04-17T16:45:28.477Z,7.97
2023-04-17T16:47:55.132Z,13.07
2023-04-17T16:50:22.331Z,9.63
2023-04-17T16:52:49.830Z,10.43
2023-04-17T16:55:16.470Z,8.63
2023-04-17T16:57:44.966Z,9.23
2023-04-17T17:00:12.088Z,18.20
2023-04-17T17:02:39.039Z,10.70
2023-04-17T17:05:07.194Z,10.20
2023-04-17T17:07:33.908Z,11.27
2023-04-17T17:10:01.032Z,10.40
2023-04-17T17:12:27.781Z,9.87
2023-04-17T17:14:54.365Z,9.40
2023-04-17T17:17:21.132Z,7.53
2023-04-17T17:19:48.515Z,8.90
2023-04-17T17:22:17.089Z,11.33
2023-04-17T17:24:46.548Z,10.80
2023-04-17T17:27:14.618Z,9.30
2023-04-17T17:29:40.956Z,7.03
2023-04-17T17:32:08.550Z,7.10
2023-04-17T17:34:35.761Z,7.47
2023-04-17T17:37:05.132Z,9.63
2023-04-17T17:39:31.663Z,9.77
2023-04-17T17:42:00.344Z,8.43
2023-04-17T17:44:26.647Z,7.07
2023-04-17T17:46:53.679Z,7.77
2023-04-17T17:49:20.096Z,8.60
2023-04-17T17:51:46.783Z,8.57
2023-04-17T17:54:13.581Z,7.33
2023-04-17T17:56:40.792Z,8.77
2023-04-17T17:59:07.113Z,10.30
2023-04-17T18:01:34.027Z,9.87
2023-04-17T18:04:00.600Z,7.93
2023-04-17T18:06:28.076Z,8.67
2023-04-17T18:08:54.601Z,7.53
2023-04-17T18:11:22.248Z,10.67
2023-04-17T18:13:48.554Z,7.97
2023-04-17T18:16:18.290Z,7.87
2023-04-17T18:18:44.897Z,9.90
2023-04-17T18:21:12.434Z,7.70
2023-04-17T18:23:38.818Z,11.80
2023-04-17T18:26:05.518Z,11.20
2023-04-17T18:28:32.436Z,10.80
2023-04-17T18:30:59.515Z,11.00
2023-04-17T18:33:25.953Z,11.13
2023-04-17T18:35:52.844Z,9.80
2023-04-17T18:38:19.554Z,19.93
2023-04-17T18:40:46.295Z,10.87
2023-04-17T18:43:12.841Z,18.00
2023-04-17T18:45:39.541Z,9.77
2023-04-17T18:48:05.965Z,16.73
2023-04-17T18:50:32.787Z,10.90
2023-04-17T18:52:59.246Z,15.10
2023-04-17T18:55:26.449Z,14.53
2023-04-17T18:57:52.793Z,12.73
2023-04-17T19:00:19.892Z,16.77
2023-04-17T19:02:47.154Z,14.20
2023-04-17T19:05:14.808Z,11.90
2023-04-17T19:07:41.450Z,14.10
2023-04-17T19:10:08.885Z,14.60
2023-04-17T19:12:35.539Z,12.20
2023-04-17T19:15:02.937Z,20.87
2023-04-17T19:17:29.661Z,15.03
2023-04-17T19:19:56.747Z,9.90
2023-04-17T19:22:23.239Z,12.70
2023-04-17T19:24:52.266Z,12.47
2023-04-17T19:27:19.634Z,9.43
2023-04-17T19:29:46.821Z,10.70
2023-04-17T19:32:15.854Z,10.70
2023-04-17T19:34:43.463Z,11.23
2023-04-17T19:37:12.127Z,13.10
2023-04-17T19:39:39.221Z,10.10
2023-04-17T19:42:05.742Z,9.53
2023-04-17T19:44:32.669Z,14.87
2023-04-17T19:46:59.212Z,10.47
2023-04-17T19:49:26.496Z,10.23
2023-04-17T19:51:53.437Z,12.80
2023-04-17T19:54:20.448Z,14.10
2023-04-17T19:56:50.446Z,15.87
2023-04-17T19:59:17.545Z,11.43
2023-04-17T20:01:44.427Z,11.90
2023-04-17T20:04:11.899Z,12.27
2023-04-17T20:06:40.129Z,11.20
2023-04-17T20:09:06.988Z,9.50
2023-04-17T20:11:33.875Z,11.07
2023-04-17T20:14:00.540Z,11.90
2023-04-17T20:16:26.992Z,12.37
2023-04-17T20:18:55.735Z,12.00
2023-04-17T20:21:22.496Z,10.67
2023-04-17T20:23:49.277Z,11.07
2023-04-17T20:26:15.802Z,12.13
2023-04-17T20:28:42.639Z,13.53
2023-04-17T20:31:10.193Z,13.63
2023-04-17T20:33:37.170Z,13.23
2023-04-17T20:36:11.660Z,12.90
2023-04-17T20:38:41.455Z,14.63
2023-04-17T20:41:09.180Z,11.97
2023-04-17T20:43:35.957Z,13.23
2023-04-17T20:46:02.342Z,13.97
2023-04-17T20:48:29.136Z,11.30
2023-04-17T20:50:56.294Z,11.87
2023-04-17T20:53:22.936Z,13.87
2023-04-17T20:55:50.539Z,11.13
2023-04-17T20:58:17.223Z,12.97
2023-04-17T21:00:54.429Z,12.67
2023-04-17T21:03:29.893Z,13.17
2023-04-17T21:05:56.716Z,11.40
2023-04-17T21:08:24.144Z,11.97
2023-04-17T21:10:50.815Z,14.57
2023-04-17T21:13:17.321Z,11.93
2023-04-17T21:15:44.010Z,13.07
2023-04-17T21:18:10.940Z,11.23
2023-04-17T21:20:39.267Z,14.80
2023-04-17T21:23:06.139Z,9.87
2023-04-17T21:25:32.624Z,10.47
2023-04-17T21:27:59.188Z,11.57
2023-04-17T21:30:27.325Z,12.40
2023-04-17T21:32:54.301Z,11.20
2023-04-17T21:35:20.645Z,11.57
2023-04-17T21:37:50.168Z,13.10
2023-04-17T21:40:16.521Z,14.80
2023-04-17T21:42:44.078Z,10.93
2023-04-17T21:45:13.869Z,13.60
2023-04-17T21:50:24.702Z,11.33
2023-04-17T21:52:51.004Z,12.07
2023-04-17T21:55:17.126Z,13.03
2023-04-17T21:57:44.094Z,14.53
2023-04-17T22:00:12.038Z,12.27
2023-04-17T22:02:38.689Z,10.67
2023-04-17T22:05:05.637Z,12.93
2023-04-17T22:07:38.105Z,14.60
2023-04-17T22:10:13.117Z,10.17
2023-04-17T22:12:39.780Z,13.80
2023-04-17T22:15:06.983Z,12.00
2023-04-17T22:17:33.617Z,12.17
2023-04-17T22:20:00.261Z,13.20
2023-04-17T22:22:26.664Z,11.70
2023-04-17T22:24:52.829Z,10.23
2023-04-17T22:27:19.350Z,10.07
2023-04-17T22:29:45.457Z,11.67
2023-04-17T22:32:11.835Z,14.57
2023-04-17T22:34:38.674Z,12.63
2023-04-17T22:37:05.960Z,9.80
2023-04-17T22:39:32.006Z,9.77
2023-04-17T22:41:58.413Z,13.50
2023-04-17T22:44:24.529Z,9.87
2023-04-17T22:46:50.869Z,12.20
2023-04-17T22:49:18.909Z,11.47
2023-04-17T22:51:46.392Z,10.70
2023-04-17T22:54:22.060Z,11.13
2023-04-17T22:56:49.941Z,11.30
2023-04-17T22:59:16.059Z,10.90
2023-04-17T23:01:42.524Z,12.33
2023-04-17T23:08:09.154Z,11.00
2023-04-17T23:10:35.331Z,11.10
2023-04-17T23:13:01.792Z,11.67
2023-04-17T23:15:28.038Z,8.10
2023-04-17T23:17:54.630Z,13.50
2023-04-17T23:20:21.827Z,9.67
2023-04-17T23:22:48.422Z,11.60
2023-04-17T23:25:14.648Z,11.40
2023-04-17T23:27:41.215Z,13.13
2023-04-17T23:30:07.840Z,12.97
2023-04-17T23:32:34.408Z,10.87
2023-04-17T23:35:00.588Z,11.37
2023-04-17T23:37:27.036Z,11.83
2023-04-17T23:39:53.143Z,12.13
2023-04-17T23:42:19.723Z,12.97
2023-04-17T23:44:45.794Z,11.90
2023-04-17T23:47:12.348Z,12.07
2023-04-17T23:49:38.366Z,11.80
2023-04-17T23:52:04.845Z,12.33
2023-04-17T23:54:31.026Z,13.53
2023-04-17T23:56:57.475Z,12.00
2023-04-17T23:59:23.502Z,12.03
